createdAt,value
2022-12-24T00:03:17.495Z,6.48
2022-12-24T00:08:21.807Z,6.49
2022-12-24T00:13:25.909Z,6.38
2022-12-24T00:18:31.741Z,6.40
2022-12-24T00:23:35.934Z,6.45
2022-12-24T00:28:40.720Z,6.49
2022-12-24T00:33:47.798Z,6.50
2022-12-24T00:38:54.096Z,6.55
2022-12-24T00:44:07.824Z,6.61
2022-12-24T00:49:13.423Z,6.60
2022-12-24T00:54:18.650Z,6.58
2022-12-24T00:59:29.395Z,6.62
2022-12-24T01:04:55.311Z,6.63
2022-12-24T01:10:01.049Z,6.56
2022-12-24T01:15:06.636Z,6.57
2022-12-24T01:20:20.478Z,6.56
2022-12-24T01:25:27.730Z,6.56
2022-12-24T01:30:34.536Z,6.59
2022-12-24T01:35:43.739Z,6.60
2022-12-24T01:41:09.043Z,6.63
2022-12-24T01:46:25.173Z,6.63
2022-12-24T01:51:41.189Z,6.67
2022-12-24T01:56:55.741Z,6.66
2022-12-24T02:02:01.890Z,6.67
2022-12-24T02:07:06.815Z,6.75
2022-12-24T02:12:11.835Z,6.76
2022-12-24T02:17:25.242Z,6.73
2022-12-24T02:23:01.114Z,6.66
2022-12-24T02:28:24.503Z,6.58
2022-12-24T02:33:39.398Z,6.58
2022-12-24T02:39:12.445Z,6.59
2022-12-24T02:44:18.971Z,6.65
2022-12-24T02:49:23.274Z,6.65
2022-12-24T02:54:27.703Z,6.64
2022-12-24T02:59:58.485Z,6.66
2022-12-24T03:05:27.069Z,6.66
2022-12-24T03:10:58.434Z,6.64
2022-12-24T03:16:07.513Z,6.64
2022-12-24T03:21:25.568Z,6.65
2022-12-24T03:26:30.418Z,6.63
2022-12-24T03:31:47.243Z,6.58
2022-12-24T03:36:52.758Z,6.63
2022-12-24T03:41:58.557Z,6.71
2022-12-24T03:47:02.852Z,6.72
2022-12-24T03:52:08.094Z,6.71
2022-12-24T03:57:12.153Z,6.70
2022-12-24T04:02:16.248Z,6.67
2022-12-24T04:07:20.005Z,6.63
2022-12-24T04:12:24.049Z,6.68
2022-12-24T04:17:29.327Z,6.72
2022-12-24T04:22:34.499Z,6.76
2022-12-24T04:27:39.366Z,6.79
2022-12-24T04:32:44.308Z,6.77
2022-12-24T04:37:48.896Z,6.67
2022-12-24T04:42:53.835Z,6.54
2022-12-24T04:47:58.237Z,6.48
2022-12-24T04:53:02.959Z,6.51
2022-12-24T04:58:07.916Z,6.45
2022-12-24T05:03:12.658Z,6.42
2022-12-24T05:08:17.049Z,6.43
2022-12-24T05:13:20.333Z,6.41
2022-12-24T05:18:25.535Z,6.33
2022-12-24T05:24:05.720Z,6.29
2022-12-24T05:29:13.406Z,6.28
2022-12-24T05:34:17.396Z,6.28
2022-12-24T05:39:21.147Z,6.32
2022-12-24T05:44:25.011Z,6.34
2022-12-24T05:49:29.157Z,6.32
2022-12-24T05:54:32.455Z,6.25
2022-12-24T05:59:36.176Z,6.12
2022-12-24T06:04:39.836Z,6.05
2022-12-24T06:09:43.666Z,6.09
2022-12-24T06:14:48.339Z,6.13
2022-12-24T06:19:52.697Z,6.07
2022-12-24T06:24:57.330Z,6.02
2022-12-24T06:30:01.789Z,6.05
2022-12-24T06:35:07.218Z,6.05
2022-12-24T06:40:12.189Z,6.02
2022-12-24T06:45:17.702Z,5.95
2022-12-24T06:50:22.275Z,5.91
2022-12-24T06:55:27.290Z,5.88
2022-12-24T07:00:31.556Z,5.81
2022-12-24T07:05:36.739Z,5.77
2022-12-24T07:10:41.716Z,5.74
2022-12-24T07:15:47.176Z,5.70
2022-12-24T07:20:52.586Z,5.59
2022-12-24T07:25:56.623Z,5.54
2022-12-24T07:31:01.927Z,5.56
2022-12-24T07:36:09.316Z,5.58
2022-12-24T07:41:14.451Z,5.62
2022-12-24T07:46:19.121Z,5.65
2022-12-24T07:51:24.072Z,5.71
2022-12-24T07:56:28.960Z,5.73
2022-12-24T08:01:34.096Z,5.69
2022-12-24T08:06:38.972Z,5.70
2022-12-24T08:11:51.395Z,5.73
2022-12-24T08:16:56.588Z,5.69
2022-12-24T08:22:02.391Z,5.64
2022-12-24T08:27:06.614Z,5.61
2022-12-24T08:32:10.559Z,5.58
2022-12-24T08:37:15.530Z,5.59
2022-12-24T08:42:20.905Z,5.63
2022-12-24T08:47:25.903Z,5.63
2022-12-24T08:52:30.066Z,5.65
2022-12-24T08:57:38.377Z,5.68
2022-12-24T09:02:42.337Z,5.68
2022-12-24T09:07:46.766Z,5.70
2022-12-24T09:12:52.062Z,5.70
2022-12-24T09:17:57.044Z,5.69
2022-12-24T09:23:01.219Z,5.71
2022-12-24T09:28:05.461Z,5.76
2022-12-24T09:33:09.049Z,5.77
2022-12-24T09:38:13.562Z,5.78
2022-12-24T09:43:22.300Z,5.76
2022-12-24T09:48:31.901Z,5.74
2022-12-24T09:53:52.540Z,5.75
2022-12-24T09:59:01.895Z,5.67
2022-12-24T10:04:13.222Z,5.69
2022-12-24T10:09:49.303Z,5.67
2022-12-24T10:15:31.021Z,5.67
2022-12-24T10:20:53.565Z,5.69
2022-12-24T10:26:28.624Z,5.70
2022-12-24T10:31:38.969Z,5.67
2022-12-24T10:36:44.517Z,5.62
2022-12-24T10:41:52.662Z,5.64
2022-12-24T10:46:57.669Z,5.67
2022-12-24T10:52:12.324Z,5.70
2022-12-24T10:57:29.162Z,5.74
2022-12-24T11:02:34.074Z,5.76
2022-12-24T11:07:38.333Z,5.76
2022-12-24T11:13:05.853Z,5.70
2022-12-24T11:18:16.330Z,5.66
2022-12-24T11:23:21.428Z,5.62
2022-12-24T11:28:29.966Z,5.59
2022-12-24T11:33:49.194Z,5.61
2022-12-24T11:38:55.994Z,5.61
2022-12-24T11:44:04.993Z,5.56
2022-12-24T11:49:28.218Z,5.54
2022-12-24T11:54:52.048Z,5.59
2022-12-24T11:59:56.261Z,5.60
2022-12-24T12:05:08.727Z,5.56
2022-12-24T12:10:37.671Z,5.50
2022-12-24T12:15:52.740Z,5.50
2022-12-24T12:21:06.910Z,5.50
2022-12-24T12:26:19.106Z,5.51
2022-12-24T12:31:27.138Z,5.47
2022-12-24T12:36:37.020Z,5.44
2022-12-24T12:41:58.951Z,5.41
2022-12-24T12:47:20.737Z,5.44
2022-12-24T12:53:02.957Z,5.52
2022-12-24T12:58:16.769Z,5.51
2022-12-24T13:03:44.108Z,5.50
2022-12-24T13:08:54.165Z,5.56
2022-12-24T13:14:16.931Z,5.64
2022-12-24T13:19:23.017Z,5.63
2022-12-24T13:24:31.684Z,5.56
2022-12-24T13:29:36.822Z,5.54
2022-12-24T13:35:14.703Z,5.53
2022-12-24T13:40:29.039Z,5.52
2022-12-24T13:45:39.943Z,5.50
2022-12-24T13:50:54.567Z,5.50
2022-12-24T13:56:19.520Z,5.47
2022-12-24T14:01:38.791Z,5.45
2022-12-24T14:06:43.749Z,5.50
2022-12-24T14:11:58.701Z,5.50
2022-12-24T14:17:23.653Z,5.48
2022-12-24T14:22:48.765Z,5.46
2022-12-24T14:27:59.981Z,5.52
2022-12-24T14:33:04.280Z,5.60
2022-12-24T14:38:22.766Z,5.63
2022-12-24T14:43:51.049Z,5.63
2022-12-24T14:49:32.603Z,5.65
2022-12-24T14:54:37.888Z,5.71
2022-12-24T14:59:51.634Z,5.70
2022-12-24T15:05:08.176Z,5.66
2022-12-24T15:10:46.010Z,5.67
2022-12-24T15:15:53.374Z,5.69
2022-12-24T15:21:04.504Z,5.67
2022-12-24T15:26:32.643Z,5.64
2022-12-24T15:31:36.434Z,5.60
2022-12-24T15:36:40.757Z,5.60
2022-12-24T15:42:08.645Z,5.60
2022-12-24T15:47:22.546Z,5.60
2022-12-24T15:52:27.873Z,5.63
2022-12-24T15:57:34.151Z,5.67
2022-12-24T16:02:48.347Z,5.70
2022-12-24T16:08:14.368Z,5.72
2022-12-24T16:14:01.574Z,5.70
2022-12-24T16:19:20.061Z,5.67
2022-12-24T16:24:32.796Z,5.65
2022-12-24T16:29:39.524Z,5.63
2022-12-24T16:34:48.564Z,5.63
2022-12-24T16:39:56.014Z,5.65
2022-12-24T16:45:05.020Z,5.65
2022-12-24T16:50:18.748Z,5.66
2022-12-24T16:55:27.504Z,5.66
2022-12-24T17:00:39.637Z,5.69
2022-12-24T17:05:48.231Z,5.71
2022-12-24T17:10:55.505Z,5.71
2022-12-24T17:16:06.548Z,5.73
2022-12-24T17:21:16.248Z,5.76
2022-12-24T17:26:22.604Z,5.73
2022-12-24T17:31:30.906Z,5.73
2022-12-24T17:36:41.625Z,5.76
2022-12-24T17:41:49.957Z,5.81
2022-12-24T17:46:57.113Z,5.83
2022-12-24T17:52:06.312Z,5.84
2022-12-24T17:57:11.250Z,5.82
2022-12-24T18:02:17.693Z,5.81
2022-12-24T18:07:27.396Z,5.82
2022-12-24T18:12:34.436Z,5.83
2022-12-24T18:17:47.406Z,5.82
2022-12-24T18:22:54.875Z,5.80
2022-12-24T18:28:08.137Z,5.77
2022-12-24T18:33:19.413Z,5.79
2022-12-24T18:38:31.375Z,5.81
2022-12-24T18:43:44.881Z,5.82
2022-12-24T18:48:52.492Z,5.81
2022-12-24T18:53:59.377Z,5.82
2022-12-24T18:59:05.566Z,5.79
2022-12-24T19:04:12.483Z,5.73
2022-12-24T19:09:21.984Z,5.72
2022-12-24T19:14:28.132Z,5.69
2022-12-24T19:19:33.473Z,5.63
2022-12-24T19:24:37.628Z,5.59
2022-12-24T19:29:41.402Z,5.60
2022-12-24T19:34:46.536Z,5.57
2022-12-24T19:39:51.477Z,5.57
2022-12-24T19:44:56.516Z,5.56
2022-12-24T19:50:02.314Z,5.52
2022-12-24T19:55:07.750Z,5.52
2022-12-24T20:00:13.054Z,5.55
2022-12-24T20:05:18.459Z,5.57
2022-12-24T20:10:22.637Z,5.60
2022-12-24T20:15:26.519Z,5.60
2022-12-24T20:20:30.340Z,5.57
2022-12-24T20:25:38.696Z,5.52
2022-12-24T20:30:45.074Z,5.50
2022-12-24T20:35:50.516Z,5.46
2022-12-24T20:40:58.299Z,5.45
2022-12-24T20:46:07.057Z,5.50
2022-12-24T20:51:22.830Z,5.50
2022-12-24T20:56:31.242Z,5.47
2022-12-24T21:01:35.505Z,5.46
2022-12-24T21:06:41.384Z,5.49
2022-12-24T21:11:48.220Z,5.49
2022-12-24T21:16:55.554Z,5.50
2022-12-24T21:22:01.154Z,5.49
2022-12-24T21:27:05.696Z,5.42
2022-12-24T21:32:09.660Z,5.32
2022-12-24T21:37:14.015Z,5.37
2022-12-24T21:42:18.662Z,5.47
2022-12-24T21:47:23.454Z,5.54
2022-12-24T21:52:27.699Z,5.57
2022-12-24T21:57:52.708Z,5.58
2022-12-24T22:02:59.454Z,5.58
2022-12-24T22:08:22.020Z,5.51
2022-12-24T22:13:26.257Z,5.51
2022-12-24T22:18:30.405Z,5.48
2022-12-24T22:23:40.552Z,5.50
2022-12-24T22:28:47.871Z,5.46
2022-12-24T22:33:52.358Z,5.36
2022-12-24T22:38:56.976Z,5.28
2022-12-24T22:44:02.478Z,5.30
2022-12-24T22:49:07.940Z,5.31
2022-12-24T22:54:12.806Z,5.32
2022-12-24T22:59:17.763Z,5.33
2022-12-24T23:04:22.592Z,5.27
2022-12-24T23:09:29.409Z,5.25
2022-12-24T23:14:52.621Z,5.32
2022-12-24T23:19:56.759Z,5.40
2022-12-24T23:25:00.882Z,5.41
2022-12-24T23:30:05.584Z,5.38
2022-12-24T23:35:09.628Z,5.38
2022-12-24T23:40:13.443Z,5.40
2022-12-24T23:45:17.556Z,5.47
2022-12-24T23:50:21.715Z,5.52
2022-12-24T23:55:26.359Z,5.58
